sensor_id;sensor_type;location;lat;lon;timestamp;temperature;humidity
13970;DHT22;7057;49.984;8.404;2023-02-28T00:00:13;0.90;99.90
13970;DHT22;7057;49.984;8.404;2023-02-28T00:02:41;0.90;99.90
13970;DHT22;7057;49.984;8.404;2023-02-28T00:05:10;0.90;99.90
13970;DHT22;7057;49.984;8.404;2023-02-28T00:07:38;0.90;99.90
13970;DHT22;7057;49.984;8.404;2023-02-28T00:10:08;1.00;99.90
13970;DHT22;7057;49.984;8.404;2023-02-28T00:12:36;1.00;99.90
13970;DHT22;7057;49.984;8.404;2023-02-28T00:15:06;1.10;99.90
13970;DHT22;7057;49.984;8.404;2023-02-28T00:17:33;1.10;99.90
13970;DHT22;7057;49.984;8.404;2023-02-28T00:20:01;1.10;99.90
13970;DHT22;7057;49.984;8.404;2023-02-28T00:22:38;1.10;99.90
13970;DHT22;7057;49.984;8.404;2023-02-28T00:25:08;1.10;99.90
13970;DHT22;7057;49.984;8.404;2023-02-28T00:27:36;1.20;99.90
13970;DHT22;7057;49.984;8.404;2023-02-28T00:30:06;1.20;99.90
13970;DHT22;7057;49.984;8.404;2023-02-28T00:32:34;1.20;99.90
13970;DHT22;7057;49.984;8.404;2023-02-28T00:35:01;1.30;99.90
13970;DHT22;7057;49.984;8.404;2023-02-28T00:37:28;1.40;99.90
13970;DHT22;7057;49.984;8.404;2023-02-28T00:39:55;1.40;99.90
13970;DHT22;7057;49.984;8.404;2023-02-28T00:42:24;1.50;99.90
13970;DHT22;7057;49.984;8.404;2023-02-28T00:44:51;1.50;99.90
13970;DHT22;7057;49.984;8.404;2023-02-28T00:47:18;1.50;99.90
13970;DHT22;7057;49.984;8.404;2023-02-28T00:49:45;1.50;99.90
13970;DHT22;7057;49.984;8.404;2023-02-28T00:52:13;1.60;99.90
13970;DHT22;7057;49.984;8.404;2023-02-28T00:54:40;1.60;99.90
13970;DHT22;7057;49.984;8.404;2023-02-28T00:57:07;1.50;99.90
13970;DHT22;7057;49.984;8.404;2023-02-28T00:59:35;1.40;99.90
13970;DHT22;7057;49.984;8.404;2023-02-28T01:02:03;1.40;99.90
13970;DHT22;7057;49.984;8.404;2023-02-28T01:04:30;1.40;99.90
13970;DHT22;7057;49.984;8.404;2023-02-28T01:06:57;1.30;99.90
13970;DHT22;7057;49.984;8.404;2023-02-28T01:09:24;1.30;99.90
13970;DHT22;7057;49.984;8.404;2023-02-28T01:11:51;1.20;99.90
13970;DHT22;7057;49.984;8.404;2023-02-28T01:14:18;1.20;99.90
13970;DHT22;7057;49.984;8.404;2023-02-28T01:16:47;1.10;99.90
13970;DHT22;7057;49.984;8.404;2023-02-28T01:19:14;1.00;99.90
13970;DHT22;7057;49.984;8.404;2023-02-28T01:21:41;1.10;99.90
13970;DHT22;7057;49.984;8.404;2023-02-28T01:24:08;1.00;99.90
13970;DHT22;7057;49.984;8.404;2023-02-28T01:26:35;1.00;99.90
13970;DHT22;7057;49.984;8.404;2023-02-28T01:29:03;0.90;99.90
13970;DHT22;7057;49.984;8.404;2023-02-28T01:31:30;0.90;99.90
13970;DHT22;7057;49.984;8.404;2023-02-28T01:33:59;0.80;99.90
13970;DHT22;7057;49.984;8.404;2023-02-28T01:36:26;0.80;99.90
13970;DHT22;7057;49.984;8.404;2023-02-28T01:38:54;0.70;99.90
13970;DHT22;7057;49.984;8.404;2023-02-28T01:41:23;0.80;99.90
13970;DHT22;7057;49.984;8.404;2023-02-28T01:43:56;0.60;99.90
13970;DHT22;7057;49.984;8.404;2023-02-28T01:46:24;0.60;99.90
13970;DHT22;7057;49.984;8.404;2023-02-28T01:49:06;0.50;99.90
13970;DHT22;7057;49.984;8.404;2023-02-28T01:51:39;0.50;99.90
13970;DHT22;7057;49.984;8.404;2023-02-28T01:54:18;0.50;99.90
13970;DHT22;7057;49.984;8.404;2023-02-28T01:56:50;0.40;99.90
13970;DHT22;7057;49.984;8.404;2023-02-28T01:59:23;0.40;99.90
13970;DHT22;7057;49.984;8.404;2023-02-28T02:01:51;0.40;99.90
13970;DHT22;7057;49.984;8.404;2023-02-28T02:04:21;0.40;99.90
13970;DHT22;7057;49.984;8.404;2023-02-28T02:06:50;0.40;99.90
13970;DHT22;7057;49.984;8.404;2023-02-28T02:09:17;0.30;99.90
13970;DHT22;7057;49.984;8.404;2023-02-28T02:11:45;0.30;99.90
13970;DHT22;7057;49.984;8.404;2023-02-28T02:14:25;0.30;99.90
13970;DHT22;7057;49.984;8.404;2023-02-28T02:17:07;0.20;99.90
13970;DHT22;7057;49.984;8.404;2023-02-28T02:20:09;0.20;99.90
13970;DHT22;7057;49.984;8.404;2023-02-28T02:23:14;0.20;99.90
13970;DHT22;7057;49.984;8.404;2023-02-28T02:25:50;0.20;99.90
13970;DHT22;7057;49.984;8.404;2023-02-28T02:28:41;0.30;99.90
13970;DHT22;7057;49.984;8.404;2023-02-28T02:31:29;0.20;99.90
13970;DHT22;7057;49.984;8.404;2023-02-28T02:34:30;0.30;99.90
13970;DHT22;7057;49.984;8.404;2023-02-28T02:37:13;0.30;99.90
13970;DHT22;7057;49.984;8.404;2023-02-28T02:39:48;0.30;99.90
13970;DHT22;7057;49.984;8.404;2023-02-28T02:42:21;0.30;99.90
13970;DHT22;7057;49.984;8.404;2023-02-28T02:44:54;0.20;99.90
13970;DHT22;7057;49.984;8.404;2023-02-28T02:47:25;0.10;99.90
13970;DHT22;7057;49.984;8.404;2023-02-28T02:49:57;0.10;99.90
13970;DHT22;7057;49.984;8.404;2023-02-28T02:52:30;0.20;99.90
13970;DHT22;7057;49.984;8.404;2023-02-28T02:54:59;0.10;99.90
13970;DHT22;7057;49.984;8.404;2023-02-28T02:57:30;0.10;99.90
13970;DHT22;7057;49.984;8.404;2023-02-28T02:59:59;0.10;99.90
13970;DHT22;7057;49.984;8.404;2023-02-28T03:02:29;0.20;99.90
13970;DHT22;7057;49.984;8.404;2023-02-28T03:05:06;0.20;99.90
13970;DHT22;7057;49.984;8.404;2023-02-28T03:07:35;0.10;99.90
13970;DHT22;7057;49.984;8.404;2023-02-28T03:10:02;0.10;99.90
13970;DHT22;7057;49.984;8.404;2023-02-28T03:12:40;0.10;99.90
13970;DHT22;7057;49.984;8.404;2023-02-28T03:15:13;0.00;99.90
13970;DHT22;7057;49.984;8.404;2023-02-28T03:17:57;-0.20;99.90
13970;DHT22;7057;49.984;8.404;2023-02-28T03:20:36;-0.20;99.90
13970;DHT22;7057;49.984;8.404;2023-02-28T03:23:13;-0.20;99.90
13970;DHT22;7057;49.984;8.404;2023-02-28T03:25:52;-0.20;99.90
13970;DHT22;7057;49.984;8.404;2023-02-28T03:28:29;-0.10;99.90
13970;DHT22;7057;49.984;8.404;2023-02-28T03:31:02;-0.10;99.90
13970;DHT22;7057;49.984;8.404;2023-02-28T03:33:38;-0.10;99.90
13970;DHT22;7057;49.984;8.404;2023-02-28T03:36:10;-0.10;99.90
13970;DHT22;7057;49.984;8.404;2023-02-28T03:38:43;-0.20;99.90
13970;DHT22;7057;49.984;8.404;2023-02-28T03:41:14;-0.20;99.90
13970;DHT22;7057;49.984;8.404;2023-02-28T03:43:47;-0.20;99.90
13970;DHT22;7057;49.984;8.404;2023-02-28T03:46:18;-0.20;99.90
13970;DHT22;7057;49.984;8.404;2023-02-28T03:48:52;-0.30;99.90
13970;DHT22;7057;49.984;8.404;2023-02-28T03:51:24;-0.30;99.90
13970;DHT22;7057;49.984;8.404;2023-02-28T03:53:56;-0.30;99.90
13970;DHT22;7057;49.984;8.404;2023-02-28T03:56:27;-0.30;99.90
13970;DHT22;7057;49.984;8.404;2023-02-28T03:59:02;-0.30;99.90
13970;DHT22;7057;49.984;8.404;2023-02-28T04:01:35;-0.30;99.90
13970;DHT22;7057;49.984;8.404;2023-02-28T04:04:04;-0.30;99.90
13970;DHT22;7057;49.984;8.404;2023-02-28T04:06:33;-0.40;99.90
13970;DHT22;7057;49.984;8.404;2023-02-28T04:09:02;-0.40;99.90
13970;DHT22;7057;49.984;8.404;2023-02-28T04:11:33;-0.50;99.90
13970;DHT22;7057;49.984;8.404;2023-02-28T04:14:00;-0.50;99.90
13970;DHT22;7057;49.984;8.404;2023-02-28T04:16:28;-0.60;99.90
13970;DHT22;7057;49.984;8.404;2023-02-28T04:18:55;-0.60;99.90
13970;DHT22;7057;49.984;8.404;2023-02-28T04:21:27;-0.50;99.90
13970;DHT22;7057;49.984;8.404;2023-02-28T04:23:56;-0.50;99.90
13970;DHT22;7057;49.984;8.404;2023-02-28T04:26:28;-0.60;99.90
13970;DHT22;7057;49.984;8.404;2023-02-28T04:28:57;-0.60;99.90
13970;DHT22;7057;49.984;8.404;2023-02-28T04:31:24;-0.60;99.90
13970;DHT22;7057;49.984;8.404;2023-02-28T04:33:52;-0.60;99.90
13970;DHT22;7057;49.984;8.404;2023-02-28T04:36:19;-0.60;99.90
13970;DHT22;7057;49.984;8.404;2023-02-28T04:38:49;-0.60;99.90
13970;DHT22;7057;49.984;8.404;2023-02-28T04:41:18;-0.50;99.90
13970;DHT22;7057;49.984;8.404;2023-02-28T04:43:46;-0.50;99.90
13970;DHT22;7057;49.984;8.404;2023-02-28T04:46:13;-0.50;99.90
13970;DHT22;7057;49.984;8.404;2023-02-28T04:48:41;-0.50;99.90
13970;DHT22;7057;49.984;8.404;2023-02-28T04:51:12;-0.40;99.90
13970;DHT22;7057;49.984;8.404;2023-02-28T04:53:42;-0.40;99.90
13970;DHT22;7057;49.984;8.404;2023-02-28T04:56:12;-0.40;99.90
13970;DHT22;7057;49.984;8.404;2023-02-28T04:58:41;-0.30;99.90
13970;DHT22;7057;49.984;8.404;2023-02-28T05:01:19;-0.30;99.90
13970;DHT22;7057;49.984;8.404;2023-02-28T05:03:46;-0.30;99.90
13970;DHT22;7057;49.984;8.404;2023-02-28T05:06:15;-0.30;99.90
13970;DHT22;7057;49.984;8.404;2023-02-28T05:08:42;-0.30;99.90
13970;DHT22;7057;49.984;8.404;2023-02-28T05:11:15;-0.30;99.90
13970;DHT22;7057;49.984;8.404;2023-02-28T05:13:44;-0.20;99.90
13970;DHT22;7057;49.984;8.404;2023-02-28T05:16:11;-0.30;99.90
13970;DHT22;7057;49.984;8.404;2023-02-28T05:18:39;-0.30;99.90
13970;DHT22;7057;49.984;8.404;2023-02-28T05:21:23;-0.30;99.90
13970;DHT22;7057;49.984;8.404;2023-02-28T05:23:51;-0.20;99.90
13970;DHT22;7057;49.984;8.404;2023-02-28T05:26:19;-0.30;99.90
13970;DHT22;7057;49.984;8.404;2023-02-28T05:28:48;-0.30;99.90
13970;DHT22;7057;49.984;8.404;2023-02-28T05:31:15;-0.40;99.90
13970;DHT22;7057;49.984;8.404;2023-02-28T05:33:42;-0.40;99.90
13970;DHT22;7057;49.984;8.404;2023-02-28T05:36:09;-0.30;99.90
13970;DHT22;7057;49.984;8.404;2023-02-28T05:38:37;-0.40;99.90
13970;DHT22;7057;49.984;8.404;2023-02-28T05:41:07;-0.40;99.90
13970;DHT22;7057;49.984;8.404;2023-02-28T05:43:35;-0.40;99.90
13970;DHT22;7057;49.984;8.404;2023-02-28T05:46:05;-0.50;99.90
13970;DHT22;7057;49.984;8.404;2023-02-28T05:48:33;-0.40;99.90
13970;DHT22;7057;49.984;8.404;2023-02-28T05:51:01;-0.50;99.90
13970;DHT22;7057;49.984;8.404;2023-02-28T05:53:29;-0.50;99.90
13970;DHT22;7057;49.984;8.404;2023-02-28T05:55:57;-0.60;99.90
13970;DHT22;7057;49.984;8.404;2023-02-28T05:58:24;-0.60;99.90
13970;DHT22;7057;49.984;8.404;2023-02-28T06:00:55;-0.50;99.90
13970;DHT22;7057;49.984;8.404;2023-02-28T06:03:23;-0.50;99.90
13970;DHT22;7057;49.984;8.404;2023-02-28T06:05:50;-0.50;99.90
13970;DHT22;7057;49.984;8.404;2023-02-28T06:08:18;-0.50;99.90
13970;DHT22;7057;49.984;8.404;2023-02-28T06:10:45;-0.50;99.90
13970;DHT22;7057;49.984;8.404;2023-02-28T06:13:13;-0.50;99.90
13970;DHT22;7057;49.984;8.404;2023-02-28T06:15:40;-0.50;99.90
13970;DHT22;7057;49.984;8.404;2023-02-28T06:18:08;-0.50;99.90
13970;DHT22;7057;49.984;8.404;2023-02-28T06:20:36;-0.50;99.90
13970;DHT22;7057;49.984;8.404;2023-02-28T06:23:04;-0.50;99.90
13970;DHT22;7057;49.984;8.404;2023-02-28T06:25:31;-0.40;99.90
13970;DHT22;7057;49.984;8.404;2023-02-28T06:27:58;-0.40;99.90
13970;DHT22;7057;49.984;8.404;2023-02-28T06:30:26;-0.40;99.90
13970;DHT22;7057;49.984;8.404;2023-02-28T06:32:57;-0.40;99.90
13970;DHT22;7057;49.984;8.404;2023-02-28T06:35:24;-0.40;99.90
13970;DHT22;7057;49.984;8.404;2023-02-28T06:37:53;-0.40;99.90
13970;DHT22;7057;49.984;8.404;2023-02-28T06:40:21;-0.40;99.90
13970;DHT22;7057;49.984;8.404;2023-02-28T06:42:48;-0.40;99.90
13970;DHT22;7057;49.984;8.404;2023-02-28T06:45:15;-0.30;99.90
13970;DHT22;7057;49.984;8.404;2023-02-28T06:47:42;-0.30;99.90
13970;DHT22;7057;49.984;8.404;2023-02-28T06:50:11;-0.20;99.90
13970;DHT22;7057;49.984;8.404;2023-02-28T06:52:39;-0.10;99.90
13970;DHT22;7057;49.984;8.404;2023-02-28T06:55:08;-0.20;99.90
13970;DHT22;7057;49.984;8.404;2023-02-28T06:57:36;-0.10;99.90
13970;DHT22;7057;49.984;8.404;2023-02-28T07:00:05;-0.20;99.90
13970;DHT22;7057;49.984;8.404;2023-02-28T07:02:33;-0.10;99.90
13970;DHT22;7057;49.984;8.404;2023-02-28T07:05:00;-0.20;99.90
13970;DHT22;7057;49.984;8.404;2023-02-28T07:07:28;0.00;99.90
13970;DHT22;7057;49.984;8.404;2023-02-28T07:09:55;0.10;99.90
13970;DHT22;7057;49.984;8.404;2023-02-28T07:12:23;0.50;99.90
13970;DHT22;7057;49.984;8.404;2023-02-28T07:14:51;0.10;99.90
13970;DHT22;7057;49.984;8.404;2023-02-28T07:17:18;0.20;99.90
13970;DHT22;7057;49.984;8.404;2023-02-28T07:19:45;0.30;99.90
13970;DHT22;7057;49.984;8.404;2023-02-28T07:22:12;0.40;99.90
13970;DHT22;7057;49.984;8.404;2023-02-28T07:24:40;0.40;99.90
13970;DHT22;7057;49.984;8.404;2023-02-28T07:27:07;0.40;99.90
13970;DHT22;7057;49.984;8.404;2023-02-28T07:29:36;0.40;99.90
13970;DHT22;7057;49.984;8.404;2023-02-28T07:32:04;0.50;99.90
13970;DHT22;7057;49.984;8.404;2023-02-28T07:34:31;0.60;99.90
13970;DHT22;7057;49.984;8.404;2023-02-28T07:36:58;0.60;99.90
13970;DHT22;7057;49.984;8.404;2023-02-28T07:39:29;0.70;99.90
13970;DHT22;7057;49.984;8.404;2023-02-28T07:41:56;0.80;99.90
13970;DHT22;7057;49.984;8.404;2023-02-28T07:44:25;0.90;99.90
13970;DHT22;7057;49.984;8.404;2023-02-28T07:46:54;0.90;99.90
13970;DHT22;7057;49.984;8.404;2023-02-28T07:49:21;1.00;99.90
13970;DHT22;7057;49.984;8.404;2023-02-28T07:51:48;1.10;99.90
13970;DHT22;7057;49.984;8.404;2023-02-28T07:54:16;1.20;99.90
13970;DHT22;7057;49.984;8.404;2023-02-28T07:56:43;1.20;99.90
13970;DHT22;7057;49.984;8.404;2023-02-28T07:59:10;1.30;99.90
13970;DHT22;7057;49.984;8.404;2023-02-28T08:01:37;1.30;99.90
13970;DHT22;7057;49.984;8.404;2023-02-28T08:04:06;1.40;99.90
13970;DHT22;7057;49.984;8.404;2023-02-28T08:06:33;1.40;99.90
13970;DHT22;7057;49.984;8.404;2023-02-28T08:09:01;1.50;99.90
13970;DHT22;7057;49.984;8.404;2023-02-28T08:11:28;1.60;99.90
13970;DHT22;7057;49.984;8.404;2023-02-28T08:13:55;1.70;99.90
13970;DHT22;7057;49.984;8.404;2023-02-28T08:16:22;1.70;99.90
13970;DHT22;7057;49.984;8.404;2023-02-28T08:18:50;1.80;99.90
13970;DHT22;7057;49.984;8.404;2023-02-28T08:21:19;1.80;99.90
13970;DHT22;7057;49.984;8.404;2023-02-28T08:23:47;1.90;99.90
13970;DHT22;7057;49.984;8.404;2023-02-28T08:26:14;1.80;99.90
13970;DHT22;7057;49.984;8.404;2023-02-28T08:28:42;1.80;99.90
13970;DHT22;7057;49.984;8.404;2023-02-28T08:31:11;1.90;99.90
13970;DHT22;7057;49.984;8.404;2023-02-28T08:33:39;1.90;99.90
13970;DHT22;7057;49.984;8.404;2023-02-28T08:36:08;1.90;99.90
13970;DHT22;7057;49.984;8.404;2023-02-28T08:38:37;2.00;99.90
13970;DHT22;7057;49.984;8.404;2023-02-28T08:41:06;2.10;99.90
13970;DHT22;7057;49.984;8.404;2023-02-28T08:43:35;2.30;99.90
13970;DHT22;7057;49.984;8.404;2023-02-28T08:46:03;2.40;99.90
13970;DHT22;7057;49.984;8.404;2023-02-28T08:48:32;2.50;99.90
13970;DHT22;7057;49.984;8.404;2023-02-28T08:51:01;2.70;99.90
13970;DHT22;7057;49.984;8.404;2023-02-28T08:53:29;2.80;99.90
13970;DHT22;7057;49.984;8.404;2023-02-28T08:55:58;2.90;99.90
13970;DHT22;7057;49.984;8.404;2023-02-28T08:58:26;3.10;99.90
13970;DHT22;7057;49.984;8.404;2023-02-28T09:00:53;3.00;99.90
13970;DHT22;7057;49.984;8.404;2023-02-28T09:03:21;3.00;99.90
13970;DHT22;7057;49.984;8.404;2023-02-28T09:05:53;3.00;99.90
13970;DHT22;7057;49.984;8.404;2023-02-28T09:08:20;3.10;99.90
13970;DHT22;7057;49.984;8.404;2023-02-28T09:10:47;3.10;99.90
13970;DHT22;7057;49.984;8.404;2023-02-28T09:13:16;3.10;99.90
13970;DHT22;7057;49.984;8.404;2023-02-28T09:15:43;3.20;99.90
13970;DHT22;7057;49.984;8.404;2023-02-28T09:18:11;3.30;99.90
13970;DHT22;7057;49.984;8.404;2023-02-28T09:20:38;3.40;99.90
13970;DHT22;7057;49.984;8.404;2023-02-28T09:23:06;3.50;99.90
13970;DHT22;7057;49.984;8.404;2023-02-28T09:25:33;3.50;99.90
13970;DHT22;7057;49.984;8.404;2023-02-28T09:28:01;3.60;99.90
13970;DHT22;7057;49.984;8.404;2023-02-28T09:30:30;3.80;99.90
13970;DHT22;7057;49.984;8.404;2023-02-28T09:32:57;3.90;99.90
13970;DHT22;7057;49.984;8.404;2023-02-28T09:35:24;3.90;99.90
13970;DHT22;7057;49.984;8.404;2023-02-28T09:37:52;3.90;99.90
13970;DHT22;7057;49.984;8.404;2023-02-28T09:40:21;3.90;99.90
13970;DHT22;7057;49.984;8.404;2023-02-28T09:42:51;3.90;99.90
13970;DHT22;7057;49.984;8.404;2023-02-28T09:45:23;3.90;99.90
13970;DHT22;7057;49.984;8.404;2023-02-28T09:47:55;3.90;99.90
13970;DHT22;7057;49.984;8.404;2023-02-28T09:50:30;3.80;99.90
13970;DHT22;7057;49.984;8.404;2023-02-28T09:53:02;3.90;99.90
13970;DHT22;7057;49.984;8.404;2023-02-28T09:55:34;4.10;99.90
13970;DHT22;7057;49.984;8.404;2023-02-28T09:58:05;4.20;99.90
13970;DHT22;7057;49.984;8.404;2023-02-28T10:00:39;4.20;99.90
13970;DHT22;7057;49.984;8.404;2023-02-28T10:03:24;4.30;99.90
13970;DHT22;7057;49.984;8.404;2023-02-28T10:05:56;4.40;99.90
13970;DHT22;7057;49.984;8.404;2023-02-28T10:08:28;4.40;99.90
13970;DHT22;7057;49.984;8.404;2023-02-28T10:10:58;4.70;99.90
13970;DHT22;7057;49.984;8.404;2023-02-28T10:13:32;4.60;99.90
13970;DHT22;7057;49.984;8.404;2023-02-28T10:16:04;4.40;99.90
13970;DHT22;7057;49.984;8.404;2023-02-28T10:18:45;4.30;99.90
13970;DHT22;7057;49.984;8.404;2023-02-28T10:21:19;4.20;99.90
13970;DHT22;7057;49.984;8.404;2023-02-28T10:23:48;4.20;99.90
13970;DHT22;7057;49.984;8.404;2023-02-28T10:26:17;4.20;99.90
13970;DHT22;7057;49.984;8.404;2023-02-28T10:28:45;4.30;99.90
13970;DHT22;7057;49.984;8.404;2023-02-28T10:31:14;4.30;99.90
13970;DHT22;7057;49.984;8.404;2023-02-28T10:33:44;4.30;99.90
13970;DHT22;7057;49.984;8.404;2023-02-28T10:36:14;4.40;99.90
13970;DHT22;7057;49.984;8.404;2023-02-28T10:38:43;4.40;99.90
13970;DHT22;7057;49.984;8.404;2023-02-28T10:41:13;4.50;99.90
13970;DHT22;7057;49.984;8.404;2023-02-28T10:43:42;4.60;99.90
13970;DHT22;7057;49.984;8.404;2023-02-28T10:46:13;4.70;99.90
13970;DHT22;7057;49.984;8.404;2023-02-28T10:49:02;4.80;99.90
13970;DHT22;7057;49.984;8.404;2023-02-28T10:51:36;4.90;99.90
13970;DHT22;7057;49.984;8.404;2023-02-28T10:54:04;4.90;99.90
13970;DHT22;7057;49.984;8.404;2023-02-28T10:56:32;4.70;99.90
13970;DHT22;7057;49.984;8.404;2023-02-28T10:59:01;4.30;99.90
13970;DHT22;7057;49.984;8.404;2023-02-28T11:01:37;4.20;99.90
13970;DHT22;7057;49.984;8.404;2023-02-28T11:04:18;4.30;99.90
13970;DHT22;7057;49.984;8.404;2023-02-28T11:06:48;4.40;99.90
13970;DHT22;7057;49.984;8.404;2023-02-28T11:09:27;4.60;99.90
13970;DHT22;7057;49.984;8.404;2023-02-28T11:11:55;4.80;99.90
13970;DHT22;7057;49.984;8.404;2023-02-28T11:14:26;5.10;99.90
13970;DHT22;7057;49.984;8.404;2023-02-28T11:17:03;5.20;99.90
13970;DHT22;7057;49.984;8.404;2023-02-28T11:19:45;5.20;99.90
13970;DHT22;7057;49.984;8.404;2023-02-28T11:22:19;5.20;99.90
13970;DHT22;7057;49.984;8.404;2023-02-28T11:24:50;5.30;99.90
13970;DHT22;7057;49.984;8.404;2023-02-28T11:27:26;5.40;99.90
13970;DHT22;7057;49.984;8.404;2023-02-28T11:30:24;5.70;99.90
13970;DHT22;7057;49.984;8.404;2023-02-28T11:32:51;5.90;99.90
13970;DHT22;7057;49.984;8.404;2023-02-28T11:35:24;5.70;99.90
13970;DHT22;7057;49.984;8.404;2023-02-28T11:37:53;5.80;99.90
13970;DHT22;7057;49.984;8.404;2023-02-28T11:40:25;5.70;99.90
13970;DHT22;7057;49.984;8.404;2023-02-28T11:43:01;5.80;99.90
13970;DHT22;7057;49.984;8.404;2023-02-28T11:45:42;5.70;99.90
13970;DHT22;7057;49.984;8.404;2023-02-28T11:48:18;5.80;99.90
13970;DHT22;7057;49.984;8.404;2023-02-28T11:50:57;5.90;99.90
13970;DHT22;7057;49.984;8.404;2023-02-28T11:53:50;6.10;99.90
13970;DHT22;7057;49.984;8.404;2023-02-28T11:56:23;6.00;99.90
13970;DHT22;7057;49.984;8.404;2023-02-28T11:58:58;5.90;99.90
13970;DHT22;7057;49.984;8.404;2023-02-28T12:01:58;5.90;99.90
13970;DHT22;7057;49.984;8.404;2023-02-28T12:04:36;6.00;99.90
13970;DHT22;7057;49.984;8.404;2023-02-28T12:07:15;5.90;99.90
13970;DHT22;7057;49.984;8.404;2023-02-28T12:09:53;5.90;99.90
13970;DHT22;7057;49.984;8.404;2023-02-28T12:12:34;5.90;99.90
13970;DHT22;7057;49.984;8.404;2023-02-28T12:15:28;6.00;99.90
13970;DHT22;7057;49.984;8.404;2023-02-28T12:20:54;5.90;99.90
13970;DHT22;7057;49.984;8.404;2023-02-28T12:23:45;6.20;99.90
13970;DHT22;7057;49.984;8.404;2023-02-28T12:26:19;6.10;99.90
13970;DHT22;7057;49.984;8.404;2023-02-28T12:28:54;6.20;99.90
13970;DHT22;7057;49.984;8.404;2023-02-28T12:31:28;6.10;99.90
13970;DHT22;7057;49.984;8.404;2023-02-28T12:34:00;6.00;99.90
13970;DHT22;7057;49.984;8.404;2023-02-28T12:36:30;6.10;99.90
13970;DHT22;7057;49.984;8.404;2023-02-28T12:39:01;6.10;99.90
13970;DHT22;7057;49.984;8.404;2023-02-28T12:41:34;6.10;99.90
13970;DHT22;7057;49.984;8.404;2023-02-28T12:47:26;6.10;99.90
13970;DHT22;7057;49.984;8.404;2023-02-28T12:49:56;5.90;99.90
13970;DHT22;7057;49.984;8.404;2023-02-28T12:52:31;6.00;99.90
13970;DHT22;7057;49.984;8.404;2023-02-28T12:55:08;5.90;99.90
13970;DHT22;7057;49.984;8.404;2023-02-28T12:57:41;5.90;99.90
13970;DHT22;7057;49.984;8.404;2023-02-28T13:00:13;5.90;99.90
13970;DHT22;7057;49.984;8.404;2023-02-28T13:06:05;5.80;99.70
13970;DHT22;7057;49.984;8.404;2023-02-28T13:08:57;5.80;99.70
13970;DHT22;7057;49.984;8.404;2023-02-28T13:11:29;5.80;99.90
13970;DHT22;7057;49.984;8.404;2023-02-28T13:13:58;5.90;99.90
13970;DHT22;7057;49.984;8.404;2023-02-28T13:16:26;5.90;99.90
13970;DHT22;7057;49.984;8.404;2023-02-28T13:19:08;6.00;99.90
13970;DHT22;7057;49.984;8.404;2023-02-28T13:21:43;6.20;99.80
13970;DHT22;7057;49.984;8.404;2023-02-28T13:24:11;6.10;99.60
13970;DHT22;7057;49.984;8.404;2023-02-28T13:33:29;6.10;99.50
13970;DHT22;7057;49.984;8.404;2023-02-28T13:36:25;6.00;99.70
13970;DHT22;7057;49.984;8.404;2023-02-28T13:38:53;6.20;99.60
13970;DHT22;7057;49.984;8.404;2023-02-28T13:44:23;6.20;99.70
13970;DHT22;7057;49.984;8.404;2023-02-28T13:47:20;6.30;99.90
13970;DHT22;7057;49.984;8.404;2023-02-28T13:49:49;6.30;99.60
13970;DHT22;7057;49.984;8.404;2023-02-28T13:52:20;6.30;99.90
13970;DHT22;7057;49.984;8.404;2023-02-28T13:55:21;6.20;99.90
13970;DHT22;7057;49.984;8.404;2023-02-28T13:58:09;6.30;99.90
13970;DHT22;7057;49.984;8.404;2023-02-28T14:04:01;6.10;99.90
13970;DHT22;7057;49.984;8.404;2023-02-28T14:06:32;6.10;99.60
13970;DHT22;7057;49.984;8.404;2023-02-28T14:09:03;6.20;99.60
13970;DHT22;7057;49.984;8.404;2023-02-28T14:11:35;6.10;99.60
13970;DHT22;7057;49.984;8.404;2023-02-28T14:14:04;6.00;99.70
13970;DHT22;7057;49.984;8.404;2023-02-28T14:16:40;6.10;99.80
13970;DHT22;7057;49.984;8.404;2023-02-28T14:19:12;6.00;99.90
13970;DHT22;7057;49.984;8.404;2023-02-28T14:21:52;6.00;99.90
13970;DHT22;7057;49.984;8.404;2023-02-28T14:27:36;6.10;99.90
13970;DHT22;7057;49.984;8.404;2023-02-28T14:33:23;6.10;99.90
13970;DHT22;7057;49.984;8.404;2023-02-28T14:36:06;6.00;99.90
13970;DHT22;7057;49.984;8.404;2023-02-28T14:38:40;6.00;99.90
13970;DHT22;7057;49.984;8.404;2023-02-28T14:41:15;5.90;99.90
13970;DHT22;7057;49.984;8.404;2023-02-28T14:43:51;5.90;99.90
13970;DHT22;7057;49.984;8.404;2023-02-28T14:46:20;5.90;99.90
13970;DHT22;7057;49.984;8.404;2023-02-28T14:48:50;6.00;99.90
13970;DHT22;7057;49.984;8.404;2023-02-28T14:51:22;6.00;99.90
13970;DHT22;7057;49.984;8.404;2023-02-28T14:53:52;6.00;99.90
13970;DHT22;7057;49.984;8.404;2023-02-28T14:56:22;6.00;99.90
13970;DHT22;7057;49.984;8.404;2023-02-28T14:58:52;6.10;99.90
13970;DHT22;7057;49.984;8.404;2023-02-28T15:01:21;6.10;99.90
13970;DHT22;7057;49.984;8.404;2023-02-28T15:03:57;6.10;99.90
13970;DHT22;7057;49.984;8.404;2023-02-28T15:06:25;6.10;99.90
13970;DHT22;7057;49.984;8.404;2023-02-28T15:09:08;6.10;99.90
13970;DHT22;7057;49.984;8.404;2023-02-28T15:11:35;6.10;99.90
13970;DHT22;7057;49.984;8.404;2023-02-28T15:14:04;6.00;99.90
13970;DHT22;7057;49.984;8.404;2023-02-28T15:16:34;6.00;99.90
13970;DHT22;7057;49.984;8.404;2023-02-28T15:19:11;6.00;99.90
13970;DHT22;7057;49.984;8.404;2023-02-28T15:21:42;6.00;99.90
13970;DHT22;7057;49.984;8.404;2023-02-28T15:24:13;6.00;99.90
13970;DHT22;7057;49.984;8.404;2023-02-28T15:26:46;6.10;99.90
13970;DHT22;7057;49.984;8.404;2023-02-28T15:29:20;6.00;99.90
13970;DHT22;7057;49.984;8.404;2023-02-28T15:31:49;6.00;99.90
13970;DHT22;7057;49.984;8.404;2023-02-28T15:34:22;6.00;99.90
13970;DHT22;7057;49.984;8.404;2023-02-28T15:36:53;6.10;99.90
13970;DHT22;7057;49.984;8.404;2023-02-28T15:39:23;6.00;99.90
13970;DHT22;7057;49.984;8.404;2023-02-28T15:41:51;6.10;99.90
13970;DHT22;7057;49.984;8.404;2023-02-28T15:44:25;6.00;99.90
13970;DHT22;7057;49.984;8.404;2023-02-28T15:47:00;6.00;99.90
13970;DHT22;7057;49.984;8.404;2023-02-28T15:49:37;6.10;99.90
13970;DHT22;7057;49.984;8.404;2023-02-28T15:52:05;6.00;99.90
13970;DHT22;7057;49.984;8.404;2023-02-28T15:54:37;6.10;99.90
13970;DHT22;7057;49.984;8.404;2023-02-28T15:57:06;6.10;99.90
13970;DHT22;7057;49.984;8.404;2023-02-28T15:59:36;6.00;99.90
13970;DHT22;7057;49.984;8.404;2023-02-28T16:02:15;6.00;99.90
13970;DHT22;7057;49.984;8.404;2023-02-28T16:05:00;5.90;99.90
13970;DHT22;7057;49.984;8.404;2023-02-28T16:07:27;5.80;99.90
13970;DHT22;7057;49.984;8.404;2023-02-28T16:09:55;5.80;99.90
13970;DHT22;7057;49.984;8.404;2023-02-28T16:12:26;5.70;99.90
13970;DHT22;7057;49.984;8.404;2023-02-28T16:14:54;5.70;99.90
13970;DHT22;7057;49.984;8.404;2023-02-28T16:17:24;5.70;99.90
13970;DHT22;7057;49.984;8.404;2023-02-28T16:19:52;5.60;99.90
13970;DHT22;7057;49.984;8.404;2023-02-28T16:22:21;5.50;99.90
13970;DHT22;7057;49.984;8.404;2023-02-28T16:24:49;5.40;99.90
13970;DHT22;7057;49.984;8.404;2023-02-28T16:27:19;5.40;99.90
13970;DHT22;7057;49.984;8.404;2023-02-28T16:29:47;5.40;99.90
13970;DHT22;7057;49.984;8.404;2023-02-28T16:32:15;5.40;99.90
13970;DHT22;7057;49.984;8.404;2023-02-28T16:34:43;5.30;99.90
13970;DHT22;7057;49.984;8.404;2023-02-28T16:37:12;5.20;99.90
13970;DHT22;7057;49.984;8.404;2023-02-28T16:39:43;5.20;99.90
13970;DHT22;7057;49.984;8.404;2023-02-28T16:42:15;5.20;99.90
13970;DHT22;7057;49.984;8.404;2023-02-28T16:44:43;5.10;99.90
13970;DHT22;7057;49.984;8.404;2023-02-28T16:47:10;5.10;99.90
13970;DHT22;7057;49.984;8.404;2023-02-28T16:49:38;5.10;99.90
13970;DHT22;7057;49.984;8.404;2023-02-28T16:52:08;5.00;99.90